sensor_id;sensor_type;location;lat;lon;timestamp;P1;durP1;ratioP1;P2;durP2;ratioP2
6376;SDS011;3221;48.858;10.128;2024-02-23T00:00:01;0.80;;;0.80;;
6376;SDS011;3221;48.858;10.128;2024-02-23T00:02:31;1.13;;;0.80;;
6376;SDS011;3221;48.858;10.128;2024-02-23T00:04:58;0.70;;;0.70;;
6376;SDS011;3221;48.858;10.128;2024-02-23T00:07:25;0.93;;;0.80;;
6376;SDS011;3221;48.858;10.128;2024-02-23T00:09:52;0.70;;;0.70;;
6376;SDS011;3221;48.858;10.128;2024-02-23T00:12:19;0.80;;;0.80;;
6376;SDS011;3221;48.858;10.128;2024-02-23T00:14:46;1.57;;;0.83;;
6376;SDS011;3221;48.858;10.128;2024-02-23T00:17:13;2.00;;;0.80;;
6376;SDS011;3221;48.858;10.128;2024-02-23T00:19:40;0.87;;;0.70;;
6376;SDS011;3221;48.858;10.128;2024-02-23T00:22:07;0.77;;;0.50;;
6376;SDS011;3221;48.858;10.128;2024-02-23T00:24:34;0.40;;;0.40;;
6376;SDS011;3221;48.858;10.128;2024-02-23T00:27:03;0.60;;;0.60;;
6376;SDS011;3221;48.858;10.128;2024-02-23T00:29:30;0.80;;;0.80;;
6376;SDS011;3221;48.858;10.128;2024-02-23T00:31:57;1.27;;;0.93;;
6376;SDS011;3221;48.858;10.128;2024-02-23T00:34:23;1.10;;;1.00;;
6376;SDS011;3221;48.858;10.128;2024-02-23T00:36:50;1.50;;;0.90;;
6376;SDS011;3221;48.858;10.128;2024-02-23T00:39:17;1.27;;;1.00;;
6376;SDS011;3221;48.858;10.128;2024-02-23T00:41:44;0.90;;;0.90;;
6376;SDS011;3221;48.858;10.128;2024-02-23T00:44:11;0.70;;;0.70;;
6376;SDS011;3221;48.858;10.128;2024-02-23T00:46:38;1.00;;;0.80;;
6376;SDS011;3221;48.858;10.128;2024-02-23T00:49:05;1.80;;;0.80;;
6376;SDS011;3221;48.858;10.128;2024-02-23T00:51:32;0.60;;;0.60;;
6376;SDS011;3221;48.858;10.128;2024-02-23T00:53:59;2.43;;;0.70;;
6376;SDS011;3221;48.858;10.128;2024-02-23T00:56:26;0.70;;;0.70;;
6376;SDS011;3221;48.858;10.128;2024-02-23T00:59:06;1.00;;;0.50;;
6376;SDS011;3221;48.858;10.128;2024-02-23T01:01:33;0.53;;;0.53;;
6376;SDS011;3221;48.858;10.128;2024-02-23T01:04:00;1.17;;;0.70;;
6376;SDS011;3221;48.858;10.128;2024-02-23T01:06:26;1.03;;;0.60;;
6376;SDS011;3221;48.858;10.128;2024-02-23T01:08:54;1.27;;;0.50;;
6376;SDS011;3221;48.858;10.128;2024-02-23T01:11:21;0.40;;;0.40;;
6376;SDS011;3221;48.858;10.128;2024-02-23T01:13:48;0.60;;;0.60;;
6376;SDS011;3221;48.858;10.128;2024-02-23T01:16:15;0.70;;;0.60;;
6376;SDS011;3221;48.858;10.128;2024-02-23T01:18:42;0.63;;;0.60;;
6376;SDS011;3221;48.858;10.128;2024-02-23T01:21:09;1.27;;;0.70;;
6376;SDS011;3221;48.858;10.128;2024-02-23T01:23:36;0.90;;;0.60;;
6376;SDS011;3221;48.858;10.128;2024-02-23T01:26:03;1.10;;;1.00;;
6376;SDS011;3221;48.858;10.128;2024-02-23T01:28:30;1.43;;;1.10;;
6376;SDS011;3221;48.858;10.128;2024-02-23T01:30:57;0.60;;;0.60;;
6376;SDS011;3221;48.858;10.128;2024-02-23T01:33:24;0.60;;;0.60;;
6376;SDS011;3221;48.858;10.128;2024-02-23T01:35:51;0.50;;;0.50;;
6376;SDS011;3221;48.858;10.128;2024-02-23T01:38:18;0.67;;;0.67;;
6376;SDS011;3221;48.858;10.128;2024-02-23T01:40:48;0.60;;;0.60;;
6376;SDS011;3221;48.858;10.128;2024-02-23T01:43:15;1.30;;;0.70;;
6376;SDS011;3221;48.858;10.128;2024-02-23T01:45:42;1.10;;;0.70;;
6376;SDS011;3221;48.858;10.128;2024-02-23T01:48:09;0.70;;;0.60;;
6376;SDS011;3221;48.858;10.128;2024-02-23T01:50:36;0.50;;;0.50;;
6376;SDS011;3221;48.858;10.128;2024-02-23T01:53:04;0.57;;;0.50;;
6376;SDS011;3221;48.858;10.128;2024-02-23T01:55:32;1.10;;;1.00;;
6376;SDS011;3221;48.858;10.128;2024-02-23T01:58:02;2.07;;;1.20;;
6376;SDS011;3221;48.858;10.128;2024-02-23T02:00:34;1.60;;;1.10;;
6376;SDS011;3221;48.858;10.128;2024-02-23T02:03:02;0.93;;;0.87;;
6376;SDS011;3221;48.858;10.128;2024-02-23T02:05:35;1.70;;;1.20;;
6376;SDS011;3221;48.858;10.128;2024-02-23T02:08:04;1.10;;;1.10;;
6376;SDS011;3221;48.858;10.128;2024-02-23T02:10:35;1.57;;;0.90;;
6376;SDS011;3221;48.858;10.128;2024-02-23T02:13:03;0.60;;;0.60;;
6376;SDS011;3221;48.858;10.128;2024-02-23T02:15:30;1.80;;;0.60;;
6376;SDS011;3221;48.858;10.128;2024-02-23T02:17:57;2.00;;;0.70;;
6376;SDS011;3221;48.858;10.128;2024-02-23T02:20:25;1.10;;;0.60;;
6376;SDS011;3221;48.858;10.128;2024-02-23T02:22:54;0.53;;;0.53;;
6376;SDS011;3221;48.858;10.128;2024-02-23T02:25:21;1.50;;;0.60;;
6376;SDS011;3221;48.858;10.128;2024-02-23T02:27:48;1.10;;;1.00;;
6376;SDS011;3221;48.858;10.128;2024-02-23T02:30:15;1.67;;;0.70;;
6376;SDS011;3221;48.858;10.128;2024-02-23T02:32:41;1.90;;;0.77;;
6376;SDS011;3221;48.858;10.128;2024-02-23T02:35:10;2.47;;;0.70;;
6376;SDS011;3221;48.858;10.128;2024-02-23T02:37:38;0.70;;;0.70;;
6376;SDS011;3221;48.858;10.128;2024-02-23T02:40:06;1.60;;;0.70;;
6376;SDS011;3221;48.858;10.128;2024-02-23T02:42:33;3.27;;;0.97;;
6376;SDS011;3221;48.858;10.128;2024-02-23T02:45:00;1.70;;;0.60;;
6376;SDS011;3221;48.858;10.128;2024-02-23T02:47:29;1.70;;;0.80;;
6376;SDS011;3221;48.858;10.128;2024-02-23T02:49:56;1.57;;;0.63;;
6376;SDS011;3221;48.858;10.128;2024-02-23T02:52:23;2.60;;;1.00;;
6376;SDS011;3221;48.858;10.128;2024-02-23T02:54:50;1.60;;;0.80;;
6376;SDS011;3221;48.858;10.128;2024-02-23T02:57:17;1.40;;;0.90;;
6376;SDS011;3221;48.858;10.128;2024-02-23T02:59:44;3.47;;;1.00;;
6376;SDS011;3221;48.858;10.128;2024-02-23T03:02:12;1.37;;;1.10;;
6376;SDS011;3221;48.858;10.128;2024-02-23T03:04:39;1.57;;;1.00;;
6376;SDS011;3221;48.858;10.128;2024-02-23T03:07:12;1.00;;;0.80;;
6376;SDS011;3221;48.858;10.128;2024-02-23T03:09:39;1.47;;;1.00;;
6376;SDS011;3221;48.858;10.128;2024-02-23T03:12:06;2.43;;;1.00;;
6376;SDS011;3221;48.858;10.128;2024-02-23T03:14:33;1.63;;;1.00;;
6376;SDS011;3221;48.858;10.128;2024-02-23T03:17:04;2.50;;;0.90;;
6376;SDS011;3221;48.858;10.128;2024-02-23T03:19:31;3.47;;;1.33;;
6376;SDS011;3221;48.858;10.128;2024-02-23T03:21:59;2.40;;;1.10;;
6376;SDS011;3221;48.858;10.128;2024-02-23T03:24:26;2.23;;;1.20;;
6376;SDS011;3221;48.858;10.128;2024-02-23T03:26:53;2.20;;;1.17;;
6376;SDS011;3221;48.858;10.128;2024-02-23T03:29:20;2.60;;;1.60;;
6376;SDS011;3221;48.858;10.128;2024-02-23T03:31:50;1.60;;;1.23;;
6376;SDS011;3221;48.858;10.128;2024-02-23T03:34:17;2.67;;;1.70;;
6376;SDS011;3221;48.858;10.128;2024-02-23T03:36:44;2.00;;;1.00;;
6376;SDS011;3221;48.858;10.128;2024-02-23T03:39:11;1.77;;;1.37;;
6376;SDS011;3221;48.858;10.128;2024-02-23T03:41:38;4.07;;;1.40;;
6376;SDS011;3221;48.858;10.128;2024-02-23T03:44:05;3.23;;;1.20;;
6376;SDS011;3221;48.858;10.128;2024-02-23T03:46:32;2.80;;;1.23;;
6376;SDS011;3221;48.858;10.128;2024-02-23T03:48:59;2.53;;;1.37;;
6376;SDS011;3221;48.858;10.128;2024-02-23T03:51:25;1.60;;;1.10;;
6376;SDS011;3221;48.858;10.128;2024-02-23T03:53:52;2.80;;;1.27;;
6376;SDS011;3221;48.858;10.128;2024-02-23T03:56:19;1.47;;;1.00;;
6376;SDS011;3221;48.858;10.128;2024-02-23T03:58:46;2.80;;;1.10;;
6376;SDS011;3221;48.858;10.128;2024-02-23T04:01:13;1.53;;;0.93;;
6376;SDS011;3221;48.858;10.128;2024-02-23T04:03:40;1.30;;;1.00;;
6376;SDS011;3221;48.858;10.128;2024-02-23T04:06:07;1.27;;;1.00;;
6376;SDS011;3221;48.858;10.128;2024-02-23T04:08:34;1.37;;;0.70;;
6376;SDS011;3221;48.858;10.128;2024-02-23T04:11:01;2.67;;;0.90;;
6376;SDS011;3221;48.858;10.128;2024-02-23T04:13:29;1.73;;;0.80;;
6376;SDS011;3221;48.858;10.128;2024-02-23T04:15:56;1.67;;;0.70;;
6376;SDS011;3221;48.858;10.128;2024-02-23T04:18:23;1.13;;;0.60;;
6376;SDS011;3221;48.858;10.128;2024-02-23T04:20:50;0.90;;;0.70;;
6376;SDS011;3221;48.858;10.128;2024-02-23T04:23:17;0.90;;;0.70;;
6376;SDS011;3221;48.858;10.128;2024-02-23T04:25:44;1.27;;;0.67;;
6376;SDS011;3221;48.858;10.128;2024-02-23T04:28:11;0.70;;;0.70;;
6376;SDS011;3221;48.858;10.128;2024-02-23T04:30:38;2.37;;;0.90;;
6376;SDS011;3221;48.858;10.128;2024-02-23T04:33:04;2.57;;;0.80;;
6376;SDS011;3221;48.858;10.128;2024-02-23T04:35:31;1.43;;;0.80;;
6376;SDS011;3221;48.858;10.128;2024-02-23T04:37:58;0.83;;;0.80;;
6376;SDS011;3221;48.858;10.128;2024-02-23T04:40:27;0.70;;;0.60;;
6376;SDS011;3221;48.858;10.128;2024-02-23T04:42:54;1.90;;;0.70;;
6376;SDS011;3221;48.858;10.128;2024-02-23T04:45:21;0.70;;;0.60;;
6376;SDS011;3221;48.858;10.128;2024-02-23T04:47:48;2.40;;;0.80;;
6376;SDS011;3221;48.858;10.128;2024-02-23T04:50:15;1.63;;;0.60;;
6376;SDS011;3221;48.858;10.128;2024-02-23T04:52:42;2.60;;;0.80;;
6376;SDS011;3221;48.858;10.128;2024-02-23T04:55:09;0.77;;;0.70;;
6376;SDS011;3221;48.858;10.128;2024-02-23T04:57:36;4.17;;;0.80;;
6376;SDS011;3221;48.858;10.128;2024-02-23T05:00:04;2.67;;;0.90;;
6376;SDS011;3221;48.858;10.128;2024-02-23T05:02:33;0.70;;;0.70;;
6376;SDS011;3221;48.858;10.128;2024-02-23T05:05:02;0.73;;;0.73;;
6376;SDS011;3221;48.858;10.128;2024-02-23T05:07:31;2.03;;;1.00;;
6376;SDS011;3221;48.858;10.128;2024-02-23T05:09:58;0.80;;;0.80;;
6376;SDS011;3221;48.858;10.128;2024-02-23T05:12:26;1.27;;;0.90;;
6376;SDS011;3221;48.858;10.128;2024-02-23T05:14:53;1.40;;;1.00;;
6376;SDS011;3221;48.858;10.128;2024-02-23T05:17:20;1.10;;;0.90;;
6376;SDS011;3221;48.858;10.128;2024-02-23T05:19:46;1.47;;;1.00;;
6376;SDS011;3221;48.858;10.128;2024-02-23T05:22:13;0.87;;;0.80;;
6376;SDS011;3221;48.858;10.128;2024-02-23T05:24:40;1.63;;;0.80;;
6376;SDS011;3221;48.858;10.128;2024-02-23T05:27:07;2.00;;;0.83;;
6376;SDS011;3221;48.858;10.128;2024-02-23T05:29:34;1.00;;;0.80;;
6376;SDS011;3221;48.858;10.128;2024-02-23T05:32:01;1.63;;;1.20;;
6376;SDS011;3221;48.858;10.128;2024-02-23T05:34:28;1.20;;;1.10;;
6376;SDS011;3221;48.858;10.128;2024-02-23T05:36:56;1.43;;;1.07;;
6376;SDS011;3221;48.858;10.128;2024-02-23T05:39:23;2.20;;;1.00;;
6376;SDS011;3221;48.858;10.128;2024-02-23T05:41:50;1.10;;;1.00;;
6376;SDS011;3221;48.858;10.128;2024-02-23T05:44:17;2.97;;;1.93;;
6376;SDS011;3221;48.858;10.128;2024-02-23T05:46:44;3.17;;;2.10;;
6376;SDS011;3221;48.858;10.128;2024-02-23T05:49:11;3.93;;;2.70;;
6376;SDS011;3221;48.858;10.128;2024-02-23T05:51:38;3.13;;;1.97;;
6376;SDS011;3221;48.858;10.128;2024-02-23T05:54:05;2.87;;;2.30;;
6376;SDS011;3221;48.858;10.128;2024-02-23T05:56:32;4.00;;;2.47;;
6376;SDS011;3221;48.858;10.128;2024-02-23T05:58:59;3.50;;;2.33;;
6376;SDS011;3221;48.858;10.128;2024-02-23T06:01:26;5.27;;;2.60;;
6376;SDS011;3221;48.858;10.128;2024-02-23T06:03:53;4.60;;;2.70;;
6376;SDS011;3221;48.858;10.128;2024-02-23T06:06:21;7.13;;;3.33;;
6376;SDS011;3221;48.858;10.128;2024-02-23T06:08:48;4.30;;;3.03;;
6376;SDS011;3221;48.858;10.128;2024-02-23T06:11:16;4.10;;;2.00;;
6376;SDS011;3221;48.858;10.128;2024-02-23T06:13:43;3.03;;;1.60;;
6376;SDS011;3221;48.858;10.128;2024-02-23T06:16:10;2.17;;;1.43;;
6376;SDS011;3221;48.858;10.128;2024-02-23T06:18:40;2.67;;;1.77;;
6376;SDS011;3221;48.858;10.128;2024-02-23T06:21:11;2.97;;;1.90;;
6376;SDS011;3221;48.858;10.128;2024-02-23T06:23:42;3.10;;;1.77;;
6376;SDS011;3221;48.858;10.128;2024-02-23T06:26:08;2.57;;;1.53;;
6376;SDS011;3221;48.858;10.128;2024-02-23T06:28:36;4.27;;;1.50;;
6376;SDS011;3221;48.858;10.128;2024-02-23T06:31:08;6.73;;;2.50;;
6376;SDS011;3221;48.858;10.128;2024-02-23T06:33:35;4.43;;;1.97;;
6376;SDS011;3221;48.858;10.128;2024-02-23T06:36:03;3.30;;;1.50;;
6376;SDS011;3221;48.858;10.128;2024-02-23T06:38:30;3.20;;;1.80;;
6376;SDS011;3221;48.858;10.128;2024-02-23T06:40:57;3.70;;;1.57;;
6376;SDS011;3221;48.858;10.128;2024-02-23T06:43:24;3.50;;;1.20;;
6376;SDS011;3221;48.858;10.128;2024-02-23T06:45:51;2.33;;;1.50;;
6376;SDS011;3221;48.858;10.128;2024-02-23T06:48:18;2.80;;;1.57;;
6376;SDS011;3221;48.858;10.128;2024-02-23T06:50:46;3.13;;;1.80;;
6376;SDS011;3221;48.858;10.128;2024-02-23T06:53:13;1.97;;;1.33;;
6376;SDS011;3221;48.858;10.128;2024-02-23T06:55:40;1.77;;;1.10;;
6376;SDS011;3221;48.858;10.128;2024-02-23T06:58:08;2.63;;;1.60;;
6376;SDS011;3221;48.858;10.128;2024-02-23T07:00:36;3.97;;;1.53;;
6376;SDS011;3221;48.858;10.128;2024-02-23T07:03:04;2.57;;;1.40;;
6376;SDS011;3221;48.858;10.128;2024-02-23T07:05:31;2.67;;;1.63;;
6376;SDS011;3221;48.858;10.128;2024-02-23T07:07:59;2.90;;;1.60;;
6376;SDS011;3221;48.858;10.128;2024-02-23T07:10:26;4.80;;;2.00;;
6376;SDS011;3221;48.858;10.128;2024-02-23T07:12:53;4.60;;;2.07;;
6376;SDS011;3221;48.858;10.128;2024-02-23T07:15:20;3.47;;;1.83;;
6376;SDS011;3221;48.858;10.128;2024-02-23T07:17:47;5.33;;;2.60;;
6376;SDS011;3221;48.858;10.128;2024-02-23T07:20:15;4.43;;;2.67;;
6376;SDS011;3221;48.858;10.128;2024-02-23T07:22:45;3.57;;;2.10;;
6376;SDS011;3221;48.858;10.128;2024-02-23T07:25:19;2.70;;;1.30;;
6376;SDS011;3221;48.858;10.128;2024-02-23T07:27:47;2.70;;;1.47;;
6376;SDS011;3221;48.858;10.128;2024-02-23T07:30:17;1.80;;;1.23;;
6376;SDS011;3221;48.858;10.128;2024-02-23T07:32:44;3.90;;;1.10;;
6376;SDS011;3221;48.858;10.128;2024-02-23T07:35:18;2.53;;;1.00;;
6376;SDS011;3221;48.858;10.128;2024-02-23T07:37:46;1.83;;;0.90;;
6376;SDS011;3221;48.858;10.128;2024-02-23T07:40:13;1.00;;;0.83;;
6376;SDS011;3221;48.858;10.128;2024-02-23T07:42:44;1.33;;;1.10;;
6376;SDS011;3221;48.858;10.128;2024-02-23T07:45:11;1.03;;;0.80;;
6376;SDS011;3221;48.858;10.128;2024-02-23T07:47:38;1.83;;;0.90;;
6376;SDS011;3221;48.858;10.128;2024-02-23T07:50:06;2.10;;;1.03;;
6376;SDS011;3221;48.858;10.128;2024-02-23T07:52:33;1.17;;;0.77;;
6376;SDS011;3221;48.858;10.128;2024-02-23T07:55:00;1.10;;;1.00;;
6376;SDS011;3221;48.858;10.128;2024-02-23T07:57:29;1.63;;;0.80;;
6376;SDS011;3221;48.858;10.128;2024-02-23T07:59:57;1.00;;;0.93;;
6376;SDS011;3221;48.858;10.128;2024-02-23T08:02:24;2.10;;;1.03;;
6376;SDS011;3221;48.858;10.128;2024-02-23T08:04:51;3.53;;;1.10;;
6376;SDS011;3221;48.858;10.128;2024-02-23T08:07:19;2.33;;;0.90;;
6376;SDS011;3221;48.858;10.128;2024-02-23T08:09:46;2.43;;;1.00;;
6376;SDS011;3221;48.858;10.128;2024-02-23T08:12:13;2.40;;;1.00;;
6376;SDS011;3221;48.858;10.128;2024-02-23T08:14:40;2.07;;;1.10;;
6376;SDS011;3221;48.858;10.128;2024-02-23T08:17:08;1.57;;;0.90;;
6376;SDS011;3221;48.858;10.128;2024-02-23T08:19:37;1.70;;;1.03;;
6376;SDS011;3221;48.858;10.128;2024-02-23T08:22:04;1.30;;;1.10;;
6376;SDS011;3221;48.858;10.128;2024-02-23T08:24:31;2.10;;;0.90;;
6376;SDS011;3221;48.858;10.128;2024-02-23T08:26:58;2.63;;;1.00;;
6376;SDS011;3221;48.858;10.128;2024-02-23T08:29:25;2.60;;;0.97;;
6376;SDS011;3221;48.858;10.128;2024-02-23T08:31:53;2.00;;;1.17;;
6376;SDS011;3221;48.858;10.128;2024-02-23T08:34:20;1.07;;;0.93;;
6376;SDS011;3221;48.858;10.128;2024-02-23T08:36:47;1.83;;;1.10;;
6376;SDS011;3221;48.858;10.128;2024-02-23T08:39:14;1.97;;;1.30;;
6376;SDS011;3221;48.858;10.128;2024-02-23T08:41:41;2.53;;;1.37;;
6376;SDS011;3221;48.858;10.128;2024-02-23T08:44:08;1.40;;;0.90;;
6376;SDS011;3221;48.858;10.128;2024-02-23T08:46:35;2.00;;;1.10;;
6376;SDS011;3221;48.858;10.128;2024-02-23T08:49:05;1.43;;;1.10;;
6376;SDS011;3221;48.858;10.128;2024-02-23T08:51:32;1.40;;;1.03;;
6376;SDS011;3221;48.858;10.128;2024-02-23T08:53:59;2.23;;;1.17;;
6376;SDS011;3221;48.858;10.128;2024-02-23T08:56:30;1.83;;;1.00;;
6376;SDS011;3221;48.858;10.128;2024-02-23T08:58:58;1.73;;;1.00;;
6376;SDS011;3221;48.858;10.128;2024-02-23T09:01:25;1.40;;;0.97;;
6376;SDS011;3221;48.858;10.128;2024-02-23T09:03:52;3.23;;;1.20;;
6376;SDS011;3221;48.858;10.128;2024-02-23T09:06:19;1.57;;;1.10;;
6376;SDS011;3221;48.858;10.128;2024-02-23T09:08:46;1.83;;;1.00;;
6376;SDS011;3221;48.858;10.128;2024-02-23T09:11:13;1.20;;;1.10;;
6376;SDS011;3221;48.858;10.128;2024-02-23T09:13:41;3.37;;;1.20;;
6376;SDS011;3221;48.858;10.128;2024-02-23T09:16:08;1.20;;;1.10;;
6376;SDS011;3221;48.858;10.128;2024-02-23T09:18:35;1.53;;;0.90;;
6376;SDS011;3221;48.858;10.128;2024-02-23T09:21:03;1.30;;;1.00;;
6376;SDS011;3221;48.858;10.128;2024-02-23T09:23:30;1.80;;;1.20;;
6376;SDS011;3221;48.858;10.128;2024-02-23T09:25:57;2.30;;;1.10;;
6376;SDS011;3221;48.858;10.128;2024-02-23T09:28:24;1.53;;;1.10;;
6376;SDS011;3221;48.858;10.128;2024-02-23T09:30:51;1.50;;;1.10;;
6376;SDS011;3221;48.858;10.128;2024-02-23T09:33:20;1.70;;;1.20;;
6376;SDS011;3221;48.858;10.128;2024-02-23T09:35:47;1.77;;;1.13;;
6376;SDS011;3221;48.858;10.128;2024-02-23T09:38:14;1.10;;;1.00;;
6376;SDS011;3221;48.858;10.128;2024-02-23T09:40:41;2.50;;;1.10;;
6376;SDS011;3221;48.858;10.128;2024-02-23T09:43:08;1.47;;;1.20;;
6376;SDS011;3221;48.858;10.128;2024-02-23T09:45:37;1.67;;;1.10;;
6376;SDS011;3221;48.858;10.128;2024-02-23T09:48:04;1.53;;;1.00;;
6376;SDS011;3221;48.858;10.128;2024-02-23T09:50:33;1.80;;;1.10;;
6376;SDS011;3221;48.858;10.128;2024-02-23T09:53:01;2.57;;;1.40;;
6376;SDS011;3221;48.858;10.128;2024-02-23T09:55:30;2.17;;;1.30;;
6376;SDS011;3221;48.858;10.128;2024-02-23T09:57:57;2.23;;;1.10;;
6376;SDS011;3221;48.858;10.128;2024-02-23T10:00:26;2.33;;;1.30;;
6376;SDS011;3221;48.858;10.128;2024-02-23T10:02:54;2.43;;;1.10;;
6376;SDS011;3221;48.858;10.128;2024-02-23T10:05:30;1.13;;;0.90;;
6376;SDS011;3221;48.858;10.128;2024-02-23T10:08:03;1.40;;;1.30;;
6376;SDS011;3221;48.858;10.128;2024-02-23T10:10:34;1.17;;;1.07;;
6376;SDS011;3221;48.858;10.128;2024-02-23T10:13:04;1.10;;;1.00;;
6376;SDS011;3221;48.858;10.128;2024-02-23T10:15:31;2.33;;;1.20;;
6376;SDS011;3221;48.858;10.128;2024-02-23T10:17:58;1.70;;;1.27;;
6376;SDS011;3221;48.858;10.128;2024-02-23T10:20:26;1.53;;;1.07;;
6376;SDS011;3221;48.858;10.128;2024-02-23T10:22:53;1.30;;;1.10;;
6376;SDS011;3221;48.858;10.128;2024-02-23T10:25:20;1.27;;;0.93;;
6376;SDS011;3221;48.858;10.128;2024-02-23T10:27:48;2.27;;;1.20;;
6376;SDS011;3221;48.858;10.128;2024-02-23T10:30:15;1.20;;;1.10;;
6376;SDS011;3221;48.858;10.128;2024-02-23T10:32:42;1.30;;;1.03;;
6376;SDS011;3221;48.858;10.128;2024-02-23T10:35:14;1.90;;;1.33;;
6376;SDS011;3221;48.858;10.128;2024-02-23T10:37:43;2.03;;;1.10;;
6376;SDS011;3221;48.858;10.128;2024-02-23T10:40:15;3.90;;;1.60;;
6376;SDS011;3221;48.858;10.128;2024-02-23T10:42:43;3.87;;;1.50;;
6376;SDS011;3221;48.858;10.128;2024-02-23T10:45:17;2.30;;;1.40;;
6376;SDS011;3221;48.858;10.128;2024-02-23T10:47:45;2.43;;;1.40;;
6376;SDS011;3221;48.858;10.128;2024-02-23T10:50:14;2.53;;;1.20;;
6376;SDS011;3221;48.858;10.128;2024-02-23T10:52:42;1.43;;;1.23;;
6376;SDS011;3221;48.858;10.128;2024-02-23T10:55:09;1.90;;;1.33;;
6376;SDS011;3221;48.858;10.128;2024-02-23T10:57:36;1.90;;;1.40;;
6376;SDS011;3221;48.858;10.128;2024-02-23T11:00:05;4.10;;;1.40;;
6376;SDS011;3221;48.858;10.128;2024-02-23T11:02:46;1.57;;;1.30;;
6376;SDS011;3221;48.858;10.128;2024-02-23T11:05:18;2.80;;;1.40;;
6376;SDS011;3221;48.858;10.128;2024-02-23T11:07:46;3.33;;;1.40;;
6376;SDS011;3221;48.858;10.128;2024-02-23T11:10:15;2.13;;;1.20;;
6376;SDS011;3221;48.858;10.128;2024-02-23T11:12:43;3.33;;;1.20;;
6376;SDS011;3221;48.858;10.128;2024-02-23T11:15:24;1.33;;;1.23;;
6376;SDS011;3221;48.858;10.128;2024-02-23T11:17:55;2.87;;;1.43;;
6376;SDS011;3221;48.858;10.128;2024-02-23T11:20:23;2.00;;;1.20;;
6376;SDS011;3221;48.858;10.128;2024-02-23T11:22:56;2.43;;;1.10;;
6376;SDS011;3221;48.858;10.128;2024-02-23T11:25:26;3.47;;;1.37;;
6376;SDS011;3221;48.858;10.128;2024-02-23T11:27:53;4.23;;;1.20;;
6376;SDS011;3221;48.858;10.128;2024-02-23T11:30:20;3.10;;;1.30;;
6376;SDS011;3221;48.858;10.128;2024-02-23T11:32:47;3.47;;;1.57;;
6376;SDS011;3221;48.858;10.128;2024-02-23T11:35:15;2.40;;;1.17;;
6376;SDS011;3221;48.858;10.128;2024-02-23T11:37:51;1.30;;;1.03;;
6376;SDS011;3221;48.858;10.128;2024-02-23T11:40:27;2.83;;;1.30;;
6376;SDS011;3221;48.858;10.128;2024-02-23T11:42:55;1.83;;;1.20;;
6376;SDS011;3221;48.858;10.128;2024-02-23T11:45:23;2.30;;;1.30;;
6376;SDS011;3221;48.858;10.128;2024-02-23T11:47:50;2.97;;;1.20;;
6376;SDS011;3221;48.858;10.128;2024-02-23T11:50:18;2.73;;;1.20;;
6376;SDS011;3221;48.858;10.128;2024-02-23T11:52:47;2.53;;;1.20;;
6376;SDS011;3221;48.858;10.128;2024-02-23T11:55:20;1.33;;;1.10;;
6376;SDS011;3221;48.858;10.128;2024-02-23T11:57:49;1.53;;;1.10;;
6376;SDS011;3221;48.858;10.128;2024-02-23T12:00:30;2.67;;;1.20;;
6376;SDS011;3221;48.858;10.128;2024-02-23T12:02:57;3.43;;;1.30;;
6376;SDS011;3221;48.858;10.128;2024-02-23T12:05:24;2.40;;;1.23;;
6376;SDS011;3221;48.858;10.128;2024-02-23T12:07:51;1.73;;;1.23;;
6376;SDS011;3221;48.858;10.128;2024-02-23T12:10:19;2.43;;;1.00;;
6376;SDS011;3221;48.858;10.128;2024-02-23T12:12:47;1.57;;;1.23;;
6376;SDS011;3221;48.858;10.128;2024-02-23T12:15:13;1.53;;;1.10;;
6376;SDS011;3221;48.858;10.128;2024-02-23T12:17:47;3.53;;;1.30;;
6376;SDS011;3221;48.858;10.128;2024-02-23T12:20:15;2.40;;;1.30;;
6376;SDS011;3221;48.858;10.128;2024-02-23T12:22:42;2.37;;;1.20;;
6376;SDS011;3221;48.858;10.128;2024-02-23T12:25:09;4.13;;;1.00;;
6376;SDS011;3221;48.858;10.128;2024-02-23T12:27:39;2.40;;;1.10;;
6376;SDS011;3221;48.858;10.128;2024-02-23T12:30:12;3.40;;;1.43;;
6376;SDS011;3221;48.858;10.128;2024-02-23T12:32:40;2.00;;;1.00;;
6376;SDS011;3221;48.858;10.128;2024-02-23T12:35:10;2.80;;;1.00;;
6376;SDS011;3221;48.858;10.128;2024-02-23T12:37:38;3.93;;;1.20;;
6376;SDS011;3221;48.858;10.128;2024-02-23T12:40:09;3.27;;;1.00;;
6376;SDS011;3221;48.858;10.128;2024-02-23T12:42:36;2.87;;;1.10;;
6376;SDS011;3221;48.858;10.128;2024-02-23T12:45:03;2.63;;;1.00;;
6376;SDS011;3221;48.858;10.128;2024-02-23T12:47:30;5.23;;;1.50;;
6376;SDS011;3221;48.858;10.128;2024-02-23T12:49:58;3.90;;;1.27;;
6376;SDS011;3221;48.858;10.128;2024-02-23T12:52:24;5.03;;;1.33;;
6376;SDS011;3221;48.858;10.128;2024-02-23T12:54:52;2.67;;;1.40;;
6376;SDS011;3221;48.858;10.128;2024-02-23T12:57:18;1.60;;;1.17;;
6376;SDS011;3221;48.858;10.128;2024-02-23T12:59:45;3.67;;;1.20;;
6376;SDS011;3221;48.858;10.128;2024-02-23T13:02:12;4.20;;;1.40;;
6376;SDS011;3221;48.858;10.128;2024-02-23T13:04:39;2.83;;;1.43;;
6376;SDS011;3221;48.858;10.128;2024-02-23T13:07:07;3.50;;;1.27;;
6376;SDS011;3221;48.858;10.128;2024-02-23T13:09:34;1.73;;;0.90;;
6376;SDS011;3221;48.858;10.128;2024-02-23T13:12:01;2.33;;;1.13;;
6376;SDS011;3221;48.858;10.128;2024-02-23T13:14:28;1.50;;;1.00;;
6376;SDS011;3221;48.858;10.128;2024-02-23T13:16:55;3.43;;;1.07;;
6376;SDS011;3221;48.858;10.128;2024-02-23T13:19:22;4.10;;;1.40;;
6376;SDS011;3221;48.858;10.128;2024-02-23T13:21:49;4.70;;;1.27;;
6376;SDS011;3221;48.858;10.128;2024-02-23T13:24:16;3.97;;;1.30;;
6376;SDS011;3221;48.858;10.128;2024-02-23T13:26:43;4.07;;;1.27;;
6376;SDS011;3221;48.858;10.128;2024-02-23T13:29:10;2.43;;;1.13;;
6376;SDS011;3221;48.858;10.128;2024-02-23T13:31:37;2.57;;;1.00;;
6376;SDS011;3221;48.858;10.128;2024-02-23T13:34:05;4.37;;;1.10;;
6376;SDS011;3221;48.858;10.128;2024-02-23T13:36:33;3.73;;;1.37;;
6376;SDS011;3221;48.858;10.128;2024-02-23T13:39:00;3.23;;;1.13;;
6376;SDS011;3221;48.858;10.128;2024-02-23T13:41:27;2.07;;;0.87;;
6376;SDS011;3221;48.858;10.128;2024-02-23T13:43:54;2.37;;;1.10;;
6376;SDS011;3221;48.858;10.128;2024-02-23T13:46:21;5.17;;;1.30;;
6376;SDS011;3221;48.858;10.128;2024-02-23T13:49:01;3.10;;;1.27;;
6376;SDS011;3221;48.858;10.128;2024-02-23T13:51:39;2.10;;;1.10;;
6376;SDS011;3221;48.858;10.128;2024-02-23T13:54:06;4.00;;;1.13;;
6376;SDS011;3221;48.858;10.128;2024-02-23T13:56:32;5.37;;;1.17;;
6376;SDS011;3221;48.858;10.128;2024-02-23T13:58:59;3.17;;;1.03;;
6376;SDS011;3221;48.858;10.128;2024-02-23T14:01:26;3.27;;;1.20;;
6376;SDS011;3221;48.858;10.128;2024-02-23T14:03:53;3.23;;;1.20;;
6376;SDS011;3221;48.858;10.128;2024-02-23T14:06:20;3.53;;;1.37;;
6376;SDS011;3221;48.858;10.128;2024-02-23T14:08:48;2.63;;;1.20;;
6376;SDS011;3221;48.858;10.128;2024-02-23T14:11:15;4.70;;;1.27;;
6376;SDS011;3221;48.858;10.128;2024-02-23T14:13:42;3.10;;;1.40;;
6376;SDS011;3221;48.858;10.128;2024-02-23T14:16:14;3.00;;;1.20;;
6376;SDS011;3221;48.858;10.128;2024-02-23T14:18:41;5.13;;;1.40;;
6376;SDS011;3221;48.858;10.128;2024-02-23T14:21:10;6.03;;;1.57;;
6376;SDS011;3221;48.858;10.128;2024-02-23T14:23:37;4.27;;;1.60;;
6376;SDS011;3221;48.858;10.128;2024-02-23T14:26:04;4.17;;;1.10;;
6376;SDS011;3221;48.858;10.128;2024-02-23T14:28:31;4.27;;;1.47;;
6376;SDS011;3221;48.858;10.128;2024-02-23T14:30:58;4.27;;;1.40;;
6376;SDS011;3221;48.858;10.128;2024-02-23T14:33:25;5.17;;;1.60;;
6376;SDS011;3221;48.858;10.128;2024-02-23T14:35:52;3.63;;;1.20;;
6376;SDS011;3221;48.858;10.128;2024-02-23T14:38:19;4.37;;;1.40;;
6376;SDS011;3221;48.858;10.128;2024-02-23T14:40:46;3.47;;;1.50;;
6376;SDS011;3221;48.858;10.128;2024-02-23T14:43:13;5.73;;;1.30;;
6376;SDS011;3221;48.858;10.128;2024-02-23T14:45:41;2.50;;;1.30;;
6376;SDS011;3221;48.858;10.128;2024-02-23T14:48:07;2.60;;;1.40;;
6376;SDS011;3221;48.858;10.128;2024-02-23T14:50:35;4.07;;;1.37;;
6376;SDS011;3221;48.858;10.128;2024-02-23T14:53:01;3.87;;;1.20;;
6376;SDS011;3221;48.858;10.128;2024-02-23T14:55:28;5.87;;;1.47;;
6376;SDS011;3221;48.858;10.128;2024-02-23T14:57:55;3.10;;;1.07;;
6376;SDS011;3221;48.858;10.128;2024-02-23T15:00:24;2.70;;;1.20;;
6376;SDS011;3221;48.858;10.128;2024-02-23T15:02:51;4.40;;;1.40;;